Flight Track Log - Related Links

Times and Time Zones

All times are in EDT time to prevent confusion due to time zone crossing. See the CRK679 flight status page for this flight to view local times or setup timezone preferences in your user account.

Time Position Orientation Groundspeed Altitude Reporting Facility
EDT Latitude Longitude Course Direction KTS MPH feet Rate Location/Type
Sun 01:22:14 AM 22.3073 114.8743 356° North 291 335 19,100  Level FlightAware ADS-B
Sun 01:22:37 AM 22.3331 114.8787 25° Northeast 280 322 18,900 -571 Descending FlightAware ADS-B
Sun 01:22:56 AM 22.3520 114.8969 59° Northeast 274 315 18,700 -692 Descending FlightAware ADS-B
Sun 01:23:55 AM 22.3617 114.9786 87° East 276 318 18,000 -594 Descending FlightAware ADS-B
Sun 01:24:37 AM 22.3638 115.0319 88° East 272 313 17,700 -578 Descending FlightAware ADS-B
Sun 01:25:18 AM 22.3647 115.0812 111° Southeast 266 306 17,200 -689 Descending FlightAware ADS-B
Sun 01:25:38 AM 22.3473 115.1084 148° Southeast 263 303 17,000 -632 Descending FlightAware ADS-B
Sun 01:25:56 AM 22.3263 115.1143 176° South 264 304 16,800 -735 Descending FlightAware ADS-B
Sun 01:26:27 AM 22.2875 115.1141 188° South 267 307 16,400 -494 Descending FlightAware ADS-B
Sun 01:33:38 AM 22.2131 114.4804 237° Southwest 313 360 13,000 -433 Descending FlightAware ADS-B
Sun 01:34:18 AM 22.1843 114.4322 237° Southwest 312 359 13,000 -478 Level FlightAware ADS-B
Sun 01:35:31 AM 22.1234 114.3269 239° Southwest 278 320 12,100 -725 Descending FlightAware ADS-B
Sun 01:35:49 AM 22.1095 114.3052 224° Southwest 266 306 11,900 -600 Descending FlightAware ADS-B
Sun 01:36:11 AM 22.0873 114.2946 185° South 251 289 11,700 -677 Descending FlightAware ADS-B
Sun 01:36:51 AM 22.0402 114.2947 179° South 247 284 11,200 -741 Descending FlightAware ADS-B
Sun 01:37:32 AM 21.9945 114.2951 180° South 247 284 10,700 -700 Descending FlightAware ADS-B
Sun 01:37:51 AM 21.9755 114.2943 196° South 250 288 10,500 -600 Descending FlightAware ADS-B
Sun 01:38:12 AM 21.9538 114.2786 237° Southwest 264 304 10,300 -700 Descending FlightAware ADS-B
Sun 01:38:51 AM 21.9299 114.2313 242° Southwest 264 304 9,800 -700 Descending FlightAware ADS-B
Sun 01:39:12 AM 21.9180 114.2070 242° Southwest 264 304 9,600 -750 Descending FlightAware ADS-B
Sun 01:39:31 AM 21.9070 114.1847 242° Southwest 261 300 9,300 -750 Descending FlightAware ADS-B
Sun 01:39:52 AM 21.8969 114.1634 251° West 264 304 9,100 -750 Descending FlightAware ADS-B
Sun 01:40:11 AM 21.8939 114.1369 272° West 270 311 8,800 -1,077 Descending FlightAware ADS-B
Sun 01:40:31 AM 21.8947 114.1077 272° West 269 310 8,400 -1,024 Descending FlightAware ADS-B
Sun 01:40:52 AM 21.8952 114.0817 271° West 268 308 8,100 -947 Descending FlightAware ADS-B
Sun 01:41:09 AM 21.8994 114.0579 295° West 273 314 7,800 -923 Descending FlightAware ADS-B
Sun 01:41:31 AM 21.9150 114.0345 309° West 273 314 7,500 -878 Descending FlightAware ADS-B
Sun 01:41:50 AM 21.9273 114.0183 309° West 272 313 7,200 -1,029 Descending FlightAware ADS-B
Sun 01:42:06 AM 21.9398 114.0017 309° West 271 312 6,900 -878 Descending FlightAware ADS-B
Sun 01:42:31 AM 21.9635 113.9698 309° West 271 312 6,600 -800 Descending FlightAware ADS-B
Sun 01:42:51 AM 21.9790 113.9490 309° West 269 310 6,300 -878 Descending FlightAware ADS-B
Sun 01:43:12 AM 21.9943 113.9285 309° West 268 308 6,000 -878 Descending FlightAware ADS-B
Sun 01:43:32 AM 22.0099 113.9074 308° West 268 308 5,700 -769 Descending FlightAware ADS-B
Sun 01:43:51 AM 22.0247 113.8873 309° West 263 303 5,500 -600 Descending FlightAware ADS-B
Sun 01:44:12 AM 22.0414 113.8677 317° Northwest 255 293 5,300 -590 Descending FlightAware ADS-B
Sun 01:44:52 AM 22.0771 113.8334 318° Northwest 250 288 4,900 -712 Descending FlightAware ADS-B
Sun 01:45:11 AM 22.0929 113.8182 319° Northwest 248 285 4,600 -769 Descending FlightAware ADS-B
Sun 01:45:31 AM 22.1087 113.8032 318° Northwest 243 280 4,400 -732 Descending FlightAware ADS-B
Sun 01:45:52 AM 22.1272 113.7861 325° Northwest 228 262 4,100 -585 Descending FlightAware ADS-B
Sun 01:46:12 AM 22.1450 113.7766 336° Northwest 218 251 4,000 -777 Descending FlightAware ADS-B
Sun 01:48:11 AM 22.2492 113.7520 34° Northeast 171 197 2,300 -857 Descending FlightAware ADS-B
Sun 01:50:00 AM 22.3089 113.9146 68° East  Level Estimated
Sun 01:51:00 AM 22.3089 113.9146 North  Level Estimated
Sun 01:52:00 AM 22.3089 113.9146 North  Level Estimated
Sun 01:53:00 AM 22.3089 113.9146 North  Level Estimated
Sun 01:54:00 AM 22.3089 113.9146 North  Level Estimated
Sun 01:55:00 AM 22.3089 113.9146 North  Level Estimated
Sun 01:56:00 AM 22.3089 113.9146 North  Level Estimated
Sun 01:57:00 AM 22.3089 113.9146 North  Level Estimated
Sun 01:58:00 AM 22.3089 113.9146 North  Level Estimated
Sun 01:59:00 AM 22.3089 113.9146 North  Level Estimated

Login

Don't have an account? Register now (free) for customized features, flight alerts, and more!